Time;durP1;ratioP1;P1;durP2;ratioP2;P2;SDS_P1;SDS_P2;PMS_P1;PMS_P2;Temp;Humidity;BMP_temperature;BMP_pressure;BME280_temperature;BME280_humidity;BME280_pressure;Samples;Min_cycle;Max_cycle;Signal;HPM_P1;HPM_P2
2024/03/20 00:00:01;;;;;;;35.80;8.52;;;;;;;;;;2058884;28;20502;-47
2024/03/20 00:01:02;;;;;;;30.70;7.50;;;;;;;;;;2057355;28;20102;-47
2024/03/20 00:02:03;;;;;;;37.65;8.68;;;;;;;;;;2059914;28;20022;-47
2024/03/20 00:03:05;;;;;;;39.50;8.70;;;;;;;;;;2059906;28;20019;-48
2024/03/20 00:04:07;;;;;;;38.25;7.70;;;;;;;;;;2063233;28;20521;-47
2024/03/20 00:05:08;;;;;;;30.45;7.38;;;;;;;;;;2058498;28;20046;-47
2024/03/20 00:06:10;;;;;;;29.08;8.52;;;;;;;;;;2064752;28;20022;-47
2024/03/20 00:07:11;;;;;;;40.08;8.38;;;;;;;;;;2056791;28;20122;-48
2024/03/20 00:08:13;;;;;;;41.13;8.85;;;;;;;;;;2059423;28;20023;-47
2024/03/20 00:09:14;;;;;;;33.65;7.93;;;;;;;;;;2060267;28;20124;-47
2024/03/20 00:10:16;;;;;;;32.17;8.43;;;;;;;;;;2064862;28;20014;-47
2024/03/20 00:11:17;;;;;;;28.80;7.78;;;;;;;;;;2058960;28;20070;-46
2024/03/20 00:12:19;;;;;;;34.20;8.38;;;;;;;;;;2061762;28;20485;-47
2024/03/20 00:13:20;;;;;;;38.10;8.73;;;;;;;;;;2060243;28;20023;-48
2024/03/20 00:14:22;;;;;;;31.95;7.18;;;;;;;;;;2058389;28;20019;-48
2024/03/20 00:15:23;;;;;;;36.90;7.78;;;;;;;;;;2063734;28;20026;-48
2024/03/20 00:16:25;;;;;;;29.80;8.70;;;;;;;;;;2059971;28;20513;-50
2024/03/20 00:17:27;;;;;;;28.92;7.38;;;;;;;;;;2057394;28;20113;-47
2024/03/20 00:18:30;;;;;;;33.08;8.07;;;;;;;;;;2060996;28;20034;-49
2024/03/20 00:19:32;;;;;;;34.70;8.55;;;;;;;;;;2058450;28;20477;-48
2024/03/20 00:20:33;;;;;;;35.45;7.90;;;;;;;;;;2067272;28;20098;-46
2024/03/20 00:21:34;;;;;;;38.47;8.43;;;;;;;;;;2064537;28;20023;-47
2024/03/20 00:22:36;;;;;;;32.40;8.27;;;;;;;;;;2060339;28;20023;-47
2024/03/20 00:23:37;;;;;;;30.35;7.85;;;;;;;;;;2061399;28;20050;-48
2024/03/20 00:24:38;;;;;;;35.35;8.55;;;;;;;;;;2062093;28;20026;-48
2024/03/20 00:25:40;;;;;;;37.53;8.50;;;;;;;;;;2065073;28;20030;-47
2024/03/20 00:26:41;;;;;;;48.58;8.90;;;;;;;;;;2057357;28;20031;-47
2024/03/20 00:27:43;;;;;;;42.05;9.68;;;;;;;;;;2057452;28;20027;-47
2024/03/20 00:28:44;;;;;;;38.47;8.70;;;;;;;;;;2057382;28;20109;-47
2024/03/20 00:29:45;;;;;;;32.55;8.55;;;;;;;;;;2060881;28;20093;-47
2024/03/20 00:30:47;;;;;;;33.05;8.48;;;;;;;;;;2057749;28;20054;-46
2024/03/20 00:31:48;;;;;;;33.00;7.90;;;;;;;;;;2058736;28;20037;-47
2024/03/20 00:32:49;;;;;;;33.35;8.70;;;;;;;;;;2060363;28;20480;-46
2024/03/20 00:33:51;;;;;;;36.20;9.18;;;;;;;;;;2056965;28;20433;-46
2024/03/20 00:34:52;;;;;;;27.35;7.95;;;;;;;;;;2057605;28;20022;-51
2024/03/20 00:35:54;;;;;;;38.00;8.32;;;;;;;;;;2059790;28;20093;-50
2024/03/20 00:36:56;;;;;;;40.20;8.48;;;;;;;;;;2065391;28;20112;-49
2024/03/20 00:37:57;;;;;;;27.75;7.55;;;;;;;;;;2065119;28;20022;-49
2024/03/20 00:38:59;;;;;;;28.65;7.72;;;;;;;;;;2065409;28;20022;-50
2024/03/20 00:40:00;;;;;;;31.70;7.50;;;;;;;;;;2065092;28;20149;-50
2024/03/20 00:41:03;;;;;;;28.45;7.45;;;;;;;;;;2065171;28;20022;-49
2024/03/20 00:42:05;;;;;;;26.50;7.20;;;;;;;;;;2065160;28;20127;-50
2024/03/20 00:43:06;;;;;;;33.42;7.90;;;;;;;;;;2063263;28;20026;-50
2024/03/20 00:44:07;;;;;;;42.30;8.82;;;;;;;;;;2064039;28;20015;-49
2024/03/20 00:45:09;;;;;;;29.00;7.85;;;;;;;;;;2057355;28;20026;-49
2024/03/20 00:46:10;;;;;;;32.70;8.88;;;;;;;;;;2062863;28;20077;-51
2024/03/20 00:47:12;;;;;;;32.83;8.27;;;;;;;;;;2065071;28;20034;-50
2024/03/20 00:48:13;;;;;;;36.78;7.18;;;;;;;;;;2058761;28;20035;-51
2024/03/20 00:49:14;;;;;;;40.75;7.43;;;;;;;;;;2062632;28;20106;-49
2024/03/20 00:50:16;;;;;;;37.53;7.95;;;;;;;;;;2063464;28;20109;-50
2024/03/20 00:51:17;;;;;;;22.67;6.40;;;;;;;;;;2065364;28;20030;-49
2024/03/20 00:52:18;;;;;;;29.05;8.20;;;;;;;;;;2062566;28;20062;-49
2024/03/20 00:53:19;;;;;;;34.70;8.15;;;;;;;;;;2063622;28;20026;-51
2024/03/20 00:54:21;;;;;;;37.65;8.82;;;;;;;;;;2065330;28;20021;-51
2024/03/20 00:55:22;;;;;;;31.20;8.57;;;;;;;;;;2065182;28;20030;-49
2024/03/20 00:56:24;;;;;;;31.77;8.98;;;;;;;;;;2065443;28;20030;-48
2024/03/20 00:57:25;;;;;;;30.67;8.52;;;;;;;;;;2065358;28;20049;-49
2024/03/20 00:58:30;;;;;;;30.10;7.80;;;;;;;;;;2065344;28;20022;-50
2024/03/20 00:59:31;;;;;;;36.40;9.38;;;;;;;;;;2064765;28;20030;-50
2024/03/20 01:00:32;;;;;;;29.85;8.60;;;;;;;;;;2064024;28;20015;-49
2024/03/20 01:01:34;;;;;;;31.55;8.27;;;;;;;;;;2063989;28;20560;-50
2024/03/20 01:02:35;;;;;;;30.80;8.07;;;;;;;;;;2063979;28;20046;-49
2024/03/20 01:03:37;;;;;;;29.65;8.07;;;;;;;;;;2060447;28;20157;-50
2024/03/20 01:04:38;;;;;;;34.90;7.78;;;;;;;;;;2056833;28;20026;-51
2024/03/20 01:05:41;;;;;;;30.38;8.00;;;;;;;;;;2058191;28;20011;-50
2024/03/20 01:06:42;;;;;;;34.50;8.00;;;;;;;;;;2061640;28;20061;-50
2024/03/20 01:07:43;;;;;;;36.75;7.85;;;;;;;;;;2061860;28;20061;-50
2024/03/20 01:08:45;;;;;;;30.35;8.65;;;;;;;;;;2064621;28;20023;-47
2024/03/20 01:09:46;;;;;;;30.83;7.93;;;;;;;;;;2063752;28;20118;-49
2024/03/20 01:10:48;;;;;;;37.15;8.52;;;;;;;;;;2056871;28;20066;-50
2024/03/20 01:11:50;;;;;;;31.65;8.10;;;;;;;;;;2061177;28;20026;-49
2024/03/20 01:12:51;;;;;;;30.50;8.15;;;;;;;;;;2064102;28;20137;-49
2024/03/20 01:13:52;;;;;;;44.20;9.43;;;;;;;;;;2058619;28;20034;-49
2024/03/20 01:14:54;;;;;;;31.17;8.38;;;;;;;;;;2062870;28;20018;-49
2024/03/20 01:15:56;;;;;;;33.95;8.38;;;;;;;;;;2057011;28;20034;-46
2024/03/20 01:16:59;;;;;;;33.35;8.98;;;;;;;;;;2059949;28;20651;-50
2024/03/20 01:18:01;;;;;;;27.25;8.43;;;;;;;;;;2064947;28;20069;-50
2024/03/20 01:19:03;;;;;;;40.20;9.43;;;;;;;;;;2064958;28;20468;-51
2024/03/20 01:20:05;;;;;;;36.85;8.50;;;;;;;;;;2064898;28;20026;-50
2024/03/20 01:21:06;;;;;;;37.72;9.20;;;;;;;;;;2064175;28;20490;-48
2024/03/20 01:22:07;;;;;;;33.85;8.35;;;;;;;;;;2064173;28;20029;-50
2024/03/20 01:23:10;;;;;;;31.88;8.02;;;;;;;;;;2057070;28;20011;-49
2024/03/20 01:24:11;;;;;;;33.05;8.45;;;;;;;;;;2064310;28;20023;-50
2024/03/20 01:25:12;;;;;;;34.28;8.38;;;;;;;;;;2059525;28;20465;-52
2024/03/20 01:26:14;;;;;;;33.30;8.30;;;;;;;;;;2059707;28;20058;-49
2024/03/20 01:27:15;;;;;;;32.85;8.95;;;;;;;;;;2062174;28;20050;-50
2024/03/20 01:28:16;;;;;;;31.35;8.68;;;;;;;;;;2062909;28;20034;-47
2024/03/20 01:29:18;;;;;;;35.17;8.32;;;;;;;;;;2063202;28;20106;-52
2024/03/20 01:30:19;;;;;;;35.17;8.57;;;;;;;;;;2062495;28;20038;-49
2024/03/20 01:31:20;;;;;;;36.17;8.98;;;;;;;;;;2061969;28;20026;-50
2024/03/20 01:32:22;;;;;;;31.48;9.20;;;;;;;;;;2064525;28;20030;-50
2024/03/20 01:33:23;;;;;;;35.78;10.23;;;;;;;;;;2064764;28;20029;-49
2024/03/20 01:34:25;;;;;;;41.38;9.30;;;;;;;;;;2061832;28;20028;-49
2024/03/20 01:35:26;;;;;;;27.70;8.23;;;;;;;;;;2056749;28;20029;-50
2024/03/20 01:36:28;;;;;;;34.53;8.77;;;;;;;;;;2062269;28;20038;-50
2024/03/20 01:37:30;;;;;;;30.52;7.57;;;;;;;;;;2064450;28;20030;-50
2024/03/20 01:38:31;;;;;;;34.58;8.65;;;;;;;;;;2064789;28;20018;-50
2024/03/20 01:39:32;;;;;;;33.33;8.25;;;;;;;;;;2062344;28;20482;-49
2024/03/20 01:40:34;;;;;;;33.75;8.52;;;;;;;;;;2059194;28;20025;-51
2024/03/20 01:41:35;;;;;;;41.33;9.13;;;;;;;;;;2059518;28;20019;-50
2024/03/20 01:42:37;;;;;;;27.23;8.10;;;;;;;;;;2060574;28;20054;-50
2024/03/20 01:43:38;;;;;;;27.95;7.88;;;;;;;;;;2064680;28;20052;-46
2024/03/20 01:44:41;;;;;;;25.75;7.60;;;;;;;;;;2056425;28;20027;-47
2024/03/20 01:45:42;;;;;;;32.67;8.65;;;;;;;;;;2055999;28;20019;-47
2024/03/20 01:46:43;;;;;;;31.42;7.28;;;;;;;;;;2059925;28;20026;-47
2024/03/20 01:47:45;;;;;;;35.00;8.57;;;;;;;;;;2064738;28;20019;-47
2024/03/20 01:48:47;;;;;;;30.23;8.10;;;;;;;;;;2060658;28;20074;-46
2024/03/20 01:49:48;;;;;;;34.17;7.55;;;;;;;;;;2059754;28;20038;-47
2024/03/20 01:50:49;;;;;;;32.33;7.65;;;;;;;;;;2061131;28;20383;-47
2024/03/20 01:51:51;;;;;;;32.70;8.75;;;;;;;;;;2058825;28;20077;-46
2024/03/20 01:52:56;;;;;;;36.63;7.95;;;;;;;;;;2059088;28;20897;-47
2024/03/20 01:53:59;;;;;;;30.00;7.18;;;;;;;;;;2060760;28;20062;-47
2024/03/20 01:55:01;;;;;;;31.27;7.55;;;;;;;;;;2061104;28;20497;-47
2024/03/20 01:56:02;;;;;;;34.28;8.18;;;;;;;;;;2064177;28;20077;-47
2024/03/20 01:57:04;;;;;;;24.67;7.50;;;;;;;;;;2063141;28;20035;-47
2024/03/20 01:58:05;;;;;;;35.47;8.25;;;;;;;;;;2056529;28;20029;-46
2024/03/20 01:59:08;;;;;;;30.92;7.70;;;;;;;;;;2011745;28;1390363;-47
2024/03/20 02:00:13;;;;;;;27.60;7.72;;;;;;;;;;2063826;28;20026;-47
2024/03/20 02:01:14;;;;;;;30.90;7.65;;;;;;;;;;2059850;28;20116;-46
2024/03/20 02:02:16;;;;;;;40.50;8.45;;;;;;;;;;2061367;28;20026;-46
2024/03/20 02:03:19;;;;;;;25.77;7.22;;;;;;;;;;2061569;28;20053;-46
2024/03/20 02:04:21;;;;;;;30.05;7.68;;;;;;;;;;2064630;28;20014;-47
2024/03/20 02:05:22;;;;;;;27.83;7.40;;;;;;;;;;2059038;28;20103;-47
2024/03/20 02:06:27;;;;;;;28.63;7.47;;;;;;;;;;2063954;28;20026;-47
2024/03/20 02:07:29;;;;;;;33.65;8.02;;;;;;;;;;2064023;28;20101;-49
2024/03/20 02:08:30;;;;;;;27.88;7.38;;;;;;;;;;2064159;28;20022;-47
2024/03/20 02:09:32;;;;;;;35.80;8.25;;;;;;;;;;2064273;28;20022;-47
2024/03/20 02:10:33;;;;;;;27.05;6.97;;;;;;;;;;2062597;28;20022;-46
2024/03/20 02:11:34;;;;;;;31.55;6.85;;;;;;;;;;2064969;28;20030;-46
2024/03/20 02:12:36;;;;;;;22.52;6.78;;;;;;;;;;2062895;28;20468;-46
2024/03/20 02:13:47;;;;;;;26.95;7.70;;;;;;;;;;2061045;28;20372;-47
2024/03/20 02:14:48;;;;;;;28.33;7.78;;;;;;;;;;2064481;28;20030;-50
2024/03/20 02:15:50;;;;;;;24.95;7.80;;;;;;;;;;2061457;28;20018;-48
2024/03/20 02:16:51;;;;;;;34.50;8.85;;;;;;;;;;2058832;28;20556;-48
2024/03/20 02:17:53;;;;;;;27.55;6.88;;;;;;;;;;2057937;28;20078;-47
2024/03/20 02:18:55;;;;;;;21.95;6.70;;;;;;;;;;2064847;28;20019;-47
2024/03/20 02:19:56;;;;;;;32.88;7.70;;;;;;;;;;2062068;28;20010;-46
2024/03/20 02:20:57;;;;;;;37.17;7.85;;;;;;;;;;2064113;28;20030;-48
2024/03/20 02:21:59;;;;;;;30.27;7.40;;;;;;;;;;2064757;28;20537;-50
2024/03/20 02:23:00;;;;;;;36.60;7.97;;;;;;;;;;2064664;28;20428;-48
2024/03/20 02:24:05;;;;;;;27.80;7.68;;;;;;;;;;2064680;28;20019;-50
2024/03/20 02:25:07;;;;;;;26.75;6.68;;;;;;;;;;2064547;28;20017;-51
2024/03/20 02:26:09;;;;;;;38.20;8.20;;;;;;;;;;2064797;28;20030;-47
2024/03/20 02:27:11;;;;;;;32.53;7.35;;;;;;;;;;2061826;28;20027;-48
2024/03/20 02:28:12;;;;;;;27.33;7.38;;;;;;;;;;2064750;28;20034;-47
2024/03/20 02:29:14;;;;;;;29.42;8.10;;;;;;;;;;2063809;28;20019;-47
2024/03/20 02:30:15;;;;;;;29.77;7.93;;;;;;;;;;2062679;28;20169;-47
2024/03/20 02:31:16;;;;;;;27.77;7.28;;;;;;;;;;2061127;28;20105;-47
2024/03/20 02:32:18;;;;;;;32.53;6.88;;;;;;;;;;2064710;28;20046;-47
2024/03/20 02:33:19;;;;;;;32.95;7.35;;;;;;;;;;2061105;28;20030;-47
2024/03/20 02:34:21;;;;;;;35.10;7.70;;;;;;;;;;2059603;28;20026;-46
2024/03/20 02:35:22;;;;;;;32.85;6.72;;;;;;;;;;2061572;28;20019;-46
2024/03/20 02:36:24;;;;;;;30.05;6.88;;;;;;;;;;2063174;28;20030;-46
2024/03/20 02:37:25;;;;;;;35.28;7.80;;;;;;;;;;2059383;28;20039;-46
2024/03/20 02:38:39;;;;;;;35.30;7.70;;;;;;;;;;2056782;28;20015;-47
2024/03/20 02:39:41;;;;;;;29.35;7.57;;;;;;;;;;2063201;28;20500;-48
2024/03/20 02:40:42;;;;;;;31.35;6.45;;;;;;;;;;2058994;28;20030;-46
2024/03/20 02:41:44;;;;;;;25.58;7.57;;;;;;;;;;2059730;28;20053;-47
2024/03/20 02:42:45;;;;;;;30.35;7.28;;;;;;;;;;2063913;28;20469;-47
2024/03/20 02:43:47;;;;;;;35.45;7.28;;;;;;;;;;2063662;28;20015;-47
2024/03/20 02:44:48;;;;;;;28.50;7.45;;;;;;;;;;2056021;28;20030;-47
2024/03/20 02:45:50;;;;;;;35.50;8.43;;;;;;;;;;2056605;28;20057;-47
2024/03/20 02:46:51;;;;;;;30.38;6.85;;;;;;;;;;2057347;28;20473;-49
2024/03/20 02:47:52;;;;;;;32.05;6.90;;;;;;;;;;2064133;28;20493;-47
2024/03/20 02:48:53;;;;;;;29.95;8.00;;;;;;;;;;2059038;28;20118;-47
2024/03/20 02:49:56;;;;;;;31.20;7.88;;;;;;;;;;2057109;28;20069;-47
2024/03/20 02:50:57;;;;;;;34.00;7.40;;;;;;;;;;2062903;28;20018;-48
2024/03/20 02:51:58;;;;;;;27.98;7.22;;;;;;;;;;2063677;28;20362;-47
2024/03/20 02:53:04;;;;;;;32.42;7.60;;;;;;;;;;2063786;28;20026;-47
2024/03/20 02:54:05;;;;;;;32.17;7.65;;;;;;;;;;2064528;28;20022;-48
2024/03/20 02:55:06;;;;;;;33.28;7.82;;;;;;;;;;2064304;28;20026;-47
2024/03/20 02:56:08;;;;;;;35.75;7.95;;;;;;;;;;2064558;28;20541;-47
2024/03/20 02:57:09;;;;;;;26.58;7.35;;;;;;;;;;2062021;28;20034;-47
2024/03/20 02:58:11;;;;;;;34.65;7.63;;;;;;;;;;2061192;28;20038;-47
2024/03/20 02:59:13;;;;;;;37.45;8.05;;;;;;;;;;2064150;28;20109;-46
2024/03/20 03:00:15;;;;;;;28.10;7.63;;;;;;;;;;2064395;28;20524;-47
2024/03/20 03:01:17;;;;;;;31.13;7.00;;;;;;;;;;2063687;28;20019;-47
2024/03/20 03:02:19;;;;;;;28.02;6.78;;;;;;;;;;2055687;28;20114;-47
2024/03/20 03:03:20;;;;;;;30.80;7.43;;;;;;;;;;2062864;28;20007;-48
2024/03/20 03:04:21;;;;;;;25.55;7.03;;;;;;;;;;2063278;28;20034;-47
2024/03/20 03:05:23;;;;;;;26.73;7.00;;;;;;;;;;2063866;28;20019;-47
2024/03/20 03:06:25;;;;;;;35.95;7.40;;;;;;;;;;2064195;28;20130;-47
2024/03/20 03:07:26;;;;;;;28.83;6.88;;;;;;;;;;2059236;28;20094;-46
2024/03/20 03:08:27;;;;;;;32.38;7.85;;;;;;;;;;2063946;28;20026;-46
2024/03/20 03:09:29;;;;;;;30.75;7.47;;;;;;;;;;2064480;28;20573;-46
2024/03/20 03:10:30;;;;;;;26.42;7.38;;;;;;;;;;2055958;28;20081;-46
2024/03/20 03:11:32;;;;;;;33.92;7.47;;;;;;;;;;2055750;28;20011;-48
2024/03/20 03:12:33;;;;;;;31.52;8.38;;;;;;;;;;2059420;28;20018;-47
2024/03/20 03:13:35;;;;;;;22.75;7.05;;;;;;;;;;2063079;28;20080;-47
2024/03/20 03:14:36;;;;;;;32.90;7.45;;;;;;;;;;2061941;28;20030;-47
2024/03/20 03:15:37;;;;;;;32.05;7.00;;;;;;;;;;2062748;28;20019;-47
2024/03/20 03:16:39;;;;;;;30.80;7.07;;;;;;;;;;2060190;28;20046;-46
2024/03/20 03:17:44;;;;;;;30.05;6.78;;;;;;;;;;2059697;28;20373;-46
2024/03/20 03:18:45;;;;;;;26.05;7.10;;;;;;;;;;2064490;28;20094;-46
2024/03/20 03:19:47;;;;;;;31.48;7.63;;;;;;;;;;2064462;28;20022;-47
2024/03/20 03:20:48;;;;;;;26.02;6.93;;;;;;;;;;2064437;28;20022;-46
2024/03/20 03:21:49;;;;;;;29.45;6.90;;;;;;;;;;2064163;28;20013;-47
2024/03/20 03:22:51;;;;;;;24.48;6.85;;;;;;;;;;2064421;28;20023;-48
2024/03/20 03:23:52;;;;;;;40.40;7.15;;;;;;;;;;2064544;28;20024;-48
2024/03/20 03:24:53;;;;;;;35.17;8.25;;;;;;;;;;2063526;28;20018;-48
2024/03/20 03:25:55;;;;;;;26.83;8.02;;;;;;;;;;2055725;28;20027;-47
2024/03/20 03:26:56;;;;;;;30.42;7.88;;;;;;;;;;2058026;28;20030;-47
2024/03/20 03:27:57;;;;;;;31.77;7.82;;;;;;;;;;2056515;28;20067;-47
2024/03/20 03:29:00;;;;;;;26.88;6.93;;;;;;;;;;2059355;28;20078;-47
2024/03/20 03:30:01;;;;;;;29.67;7.00;;;;;;;;;;2060621;28;20116;-49
2024/03/20 03:31:03;;;;;;;32.53;7.82;;;;;;;;;;2056763;28;20101;-50
2024/03/20 03:32:04;;;;;;;36.25;7.35;;;;;;;;;;2062568;28;20579;-50
2024/03/20 03:33:06;;;;;;;31.45;7.65;;;;;;;;;;2059459;28;20085;-50
2024/03/20 03:34:07;;;;;;;29.67;7.00;;;;;;;;;;2056539;28;20023;-50
2024/03/20 03:35:09;;;;;;;28.27;7.57;;;;;;;;;;2056319;28;20023;-50
2024/03/20 03:36:10;;;;;;;29.25;8.45;;;;;;;;;;2061821;28;20018;-47
2024/03/20 03:37:11;;;;;;;40.83;7.50;;;;;;;;;;2055637;28;20633;-50
2024/03/20 03:38:13;;;;;;;30.48;7.45;;;;;;;;;;2058882;28;20073;-52
2024/03/20 03:39:14;;;;;;;27.02;7.88;;;;;;;;;;2064380;28;20033;-49
2024/03/20 03:40:16;;;;;;;40.88;7.82;;;;;;;;;;2057351;28;20038;-49
2024/03/20 03:41:17;;;;;;;28.88;6.90;;;;;;;;;;2056268;28;20027;-50
2024/03/20 03:42:20;;;;;;;32.28;8.18;;;;;;;;;;2056201;28;20051;-53
2024/03/20 03:43:21;;;;;;;31.80;7.50;;;;;;;;;;2056884;28;20035;-52
2024/03/20 03:44:23;;;;;;;32.08;8.32;;;;;;;;;;2063189;28;20019;-49
2024/03/20 03:45:25;;;;;;;22.52;6.78;;;;;;;;;;2063636;28;20084;-51
2024/03/20 03:46:26;;;;;;;28.38;7.68;;;;;;;;;;2062859;28;20019;-47
2024/03/20 03:47:30;;;;;;;35.88;7.85;;;;;;;;;;2063865;28;20026;-47
2024/03/20 03:48:32;;;;;;;31.02;7.85;;;;;;;;;;2064395;28;20029;-47
2024/03/20 03:49:33;;;;;;;27.50;7.07;;;;;;;;;;2057380;28;20066;-46
2024/03/20 03:50:35;;;;;;;35.03;8.10;;;;;;;;;;2058111;28;20074;-48
2024/03/20 03:51:36;;;;;;;27.73;7.22;;;;;;;;;;2063910;28;20050;-47
2024/03/20 03:52:37;;;;;;;32.47;7.82;;;;;;;;;;2064204;28;20109;-53
2024/03/20 03:53:39;;;;;;;31.88;7.32;;;;;;;;;;2064188;28;20023;-47
2024/03/20 03:54:40;;;;;;;45.40;7.70;;;;;;;;;;2064148;28;20003;-47
2024/03/20 03:55:42;;;;;;;32.45;7.30;;;;;;;;;;2063952;28;20426;-47
2024/03/20 03:56:43;;;;;;;34.70;9.13;;;;;;;;;;2059860;28;20088;-47
2024/03/20 03:57:44;;;;;;;31.85;7.65;;;;;;;;;;2064403;28;20054;-48
2024/03/20 03:58:46;;;;;;;27.52;6.95;;;;;;;;;;2063496;28;20015;-48
2024/03/20 03:59:47;;;;;;;25.05;6.75;;;;;;;;;;2063310;28;20034;-47
2024/03/20 04:00:49;;;;;;;34.45;7.93;;;;;;;;;;2055198;28;20027;-47
2024/03/20 04:01:50;;;;;;;32.00;6.97;;;;;;;;;;2062158;28;20018;-48
2024/03/20 04:02:52;;;;;;;25.42;6.90;;;;;;;;;;2056383;28;20022;-48
2024/03/20 04:03:53;;;;;;;30.88;8.32;;;;;;;;;;2060767;28;20014;-47
2024/03/20 04:04:54;;;;;;;26.52;7.40;;;;;;;;;;2063638;28;20028;-46
2024/03/20 04:05:59;;;;;;;28.65;7.43;;;;;;;;;;2054326;28;20046;-46
2024/03/20 04:07:00;;;;;;;35.97;7.93;;;;;;;;;;2062888;28;20505;-46
2024/03/20 04:08:02;;;;;;;37.42;8.35;;;;;;;;;;2063343;28;20026;-46
2024/03/20 04:09:05;;;;;;;25.50;6.70;;;;;;;;;;2055806;28;20417;-46
2024/03/20 04:10:06;;;;;;;29.55;7.30;;;;;;;;;;2061857;28;20026;-46
2024/03/20 04:11:08;;;;;;;34.35;7.53;;;;;;;;;;2062628;28;20038;-48
2024/03/20 04:12:09;;;;;;;23.80;7.07;;;;;;;;;;2063988;28;20493;-47
2024/03/20 04:13:10;;;;;;;28.20;7.50;;;;;;;;;;2064031;28;20113;-47
2024/03/20 04:14:12;;;;;;;32.90;7.47;;;;;;;;;;2063386;28;20019;-46
2024/03/20 04:15:14;;;;;;;33.22;7.28;;;;;;;;;;2062825;28;20034;-46
2024/03/20 04:16:15;;;;;;;37.00;7.55;;;;;;;;;;2058819;28;20156;-47
2024/03/20 04:17:16;;;;;;;33.30;7.45;;;;;;;;;;2059832;28;20142;-46
2024/03/20 04:18:18;;;;;;;34.70;7.22;;;;;;;;;;2065792;28;20045;-47
2024/03/20 04:19:19;;;;;;;31.02;7.95;;;;;;;;;;2065481;28;20030;-46
2024/03/20 04:20:20;;;;;;;36.03;7.45;;;;;;;;;;2065642;28;20045;-46
2024/03/20 04:21:23;;;;;;;35.55;8.00;;;;;;;;;;2065594;28;20030;-46
2024/03/20 04:22:24;;;;;;;36.70;7.43;;;;;;;;;;2065342;28;20015;-46
2024/03/20 04:23:25;;;;;;;33.47;8.00;;;;;;;;;;2065697;28;20035;-46
2024/03/20 04:24:27;;;;;;;23.10;6.60;;;;;;;;;;2065582;28;20109;-47
2024/03/20 04:25:28;;;;;;;31.60;7.53;;;;;;;;;;2064088;28;20020;-46
2024/03/20 04:26:30;;;;;;;27.20;6.55;;;;;;;;;;2065637;28;20036;-47
2024/03/20 04:27:32;;;;;;;23.73;7.05;;;;;;;;;;2059841;28;20488;-47
2024/03/20 04:28:33;;;;;;;36.50;8.18;;;;;;;;;;2059334;28;20041;-48
2024/03/20 04:29:34;;;;;;;29.10;7.47;;;;;;;;;;2065064;28;20101;-47
2024/03/20 04:30:36;;;;;;;40.47;7.60;;;;;;;;;;2060402;28;20031;-47
2024/03/20 04:31:38;;;;;;;23.90;6.97;;;;;;;;;;2057911;28;20030;-47
2024/03/20 04:32:39;;;;;;;41.30;8.52;;;;;;;;;;2060506;28;20105;-46
2024/03/20 04:33:41;;;;;;;29.13;7.47;;;;;;;;;;2061696;28;20076;-46
2024/03/20 04:34:42;;;;;;;28.95;8.02;;;;;;;;;;2065299;28;20029;-46
2024/03/20 04:35:43;;;;;;;24.55;7.38;;;;;;;;;;2059453;28;20100;-47
2024/03/20 04:36:45;;;;;;;34.25;7.78;;;;;;;;;;2058348;28;20019;-46
2024/03/20 04:37:46;;;;;;;25.23;6.75;;;;;;;;;;2062116;28;20041;-45
2024/03/20 04:38:48;;;;;;;23.35;7.07;;;;;;;;;;2062084;28;20454;-46
2024/03/20 04:39:50;;;;;;;39.65;8.07;;;;;;;;;;2059883;28;20245;-47
2024/03/20 04:40:51;;;;;;;33.33;8.23;;;;;;;;;;2063650;28;20025;-46
2024/03/20 04:41:52;;;;;;;27.90;6.78;;;;;;;;;;2063376;28;20081;-45
2024/03/20 04:42:54;;;;;;;34.72;7.30;;;;;;;;;;2057651;28;20027;-47
2024/03/20 04:43:55;;;;;;;33.67;6.70;;;;;;;;;;2060516;28;21261;-46
2024/03/20 04:44:56;;;;;;;35.63;7.28;;;;;;;;;;2060039;28;20011;-48
2024/03/20 04:45:58;;;;;;;28.75;7.47;;;;;;;;;;2058493;28;20137;-47
2024/03/20 04:46:59;;;;;;;25.27;7.28;;;;;;;;;;2062711;28;20018;-46
2024/03/20 04:48:00;;;;;;;28.10;7.18;;;;;;;;;;2062022;28;20121;-49
2024/03/20 04:49:01;;;;;;;25.08;7.63;;;;;;;;;;2057509;28;20035;-51
2024/03/20 04:50:03;;;;;;;28.33;7.57;;;;;;;;;;2063840;28;20037;-52
2024/03/20 04:51:04;;;;;;;31.90;7.88;;;;;;;;;;2060604;28;20104;-50
2024/03/20 04:52:06;;;;;;;29.40;6.65;;;;;;;;;;2057361;28;20029;-52
2024/03/20 04:53:07;;;;;;;25.33;7.63;;;;;;;;;;2064763;28;20026;-52
2024/03/20 04:54:08;;;;;;;30.85;7.45;;;;;;;;;;2063047;28;20117;-52
2024/03/20 04:55:10;;;;;;;26.52;7.55;;;;;;;;;;2065259;28;20026;-47
2024/03/20 04:56:11;;;;;;;30.20;7.28;;;;;;;;;;2064053;28;20040;-49
2024/03/20 04:57:12;;;;;;;30.58;7.65;;;;;;;;;;2064391;28;20098;-52
2024/03/20 04:58:14;;;;;;;26.95;7.28;;;;;;;;;;2064801;28;20026;-52
2024/03/20 04:59:15;;;;;;;33.50;7.53;;;;;;;;;;2064360;28;20477;-50
2024/03/20 05:00:17;;;;;;;28.20;7.28;;;;;;;;;;2059476;28;20058;-50
2024/03/20 05:01:18;;;;;;;25.13;8.45;;;;;;;;;;2065050;28;20022;-51
2024/03/20 05:02:19;;;;;;;29.80;7.28;;;;;;;;;;2064051;28;20072;-52
2024/03/20 05:03:21;;;;;;;30.80;7.88;;;;;;;;;;2056428;28;20736;-48
2024/03/20 05:04:22;;;;;;;24.50;6.78;;;;;;;;;;2054257;28;20025;-52
2024/03/20 05:05:23;;;;;;;29.70;8.00;;;;;;;;;;2057424;28;20011;-51
2024/03/20 05:06:25;;;;;;;31.10;7.25;;;;;;;;;;2064049;28;20029;-52
2024/03/20 05:07:26;;;;;;;30.88;7.82;;;;;;;;;;2064367;28;20513;-52
2024/03/20 05:08:28;;;;;;;30.25;7.55;;;;;;;;;;2063996;28;20029;-50
2024/03/20 05:09:30;;;;;;;26.23;6.55;;;;;;;;;;2061526;28;20496;-52
2024/03/20 05:10:31;;;;;;;27.27;7.05;;;;;;;;;;2065153;28;20022;-53
2024/03/20 05:11:32;;;;;;;24.50;6.45;;;;;;;;;;2059849;28;20027;-49
2024/03/20 05:12:34;;;;;;;35.38;7.13;;;;;;;;;;2060217;28;20027;-51
2024/03/20 05:13:35;;;;;;;44.92;18.88;;;;;;;;;;2060590;28;20062;-50
2024/03/20 05:14:36;;;;;;;34.60;8.90;;;;;;;;;;2064114;28;20454;-52
2024/03/20 05:15:39;;;;;;;32.45;8.52;;;;;;;;;;2064972;28;20058;-52
2024/03/20 05:16:40;;;;;;;28.55;7.50;;;;;;;;;;2060876;28;20038;-52
2024/03/20 05:17:42;;;;;;;27.08;7.70;;;;;;;;;;2064251;28;20085;-52
2024/03/20 05:18:43;;;;;;;33.30;8.25;;;;;;;;;;2063725;28;20026;-48
2024/03/20 05:19:44;;;;;;;27.33;7.78;;;;;;;;;;2057237;28;20093;-51
2024/03/20 05:20:45;;;;;;;30.25;7.35;;;;;;;;;;2059722;28;20007;-51
2024/03/20 05:21:47;;;;;;;32.05;7.18;;;;;;;;;;2057090;28;20019;-53
2024/03/20 05:22:48;;;;;;;27.90;7.28;;;;;;;;;;2064252;28;20493;-51
2024/03/20 05:23:49;;;;;;;37.47;7.47;;;;;;;;;;2064922;28;20019;-52
2024/03/20 05:24:51;;;;;;;38.38;8.70;;;;;;;;;;2065219;28;20022;-49
2024/03/20 05:25:56;;;;;;;29.95;7.45;;;;;;;;;;2065912;28;20018;-46
2024/03/20 05:26:57;;;;;;;27.88;7.40;;;;;;;;;;2061263;28;20022;-52
2024/03/20 05:27:58;;;;;;;23.13;6.78;;;;;;;;;;2062868;28;20026;-51
2024/03/20 05:28:59;;;;;;;26.42;8.18;;;;;;;;;;2062378;28;20433;-51
2024/03/20 05:30:02;;;;;;;34.05;8.48;;;;;;;;;;2060817;28;20037;-52
2024/03/20 05:31:03;;;;;;;31.13;8.00;;;;;;;;;;2056166;28;20034;-49
2024/03/20 05:32:05;;;;;;;31.40;8.50;;;;;;;;;;2058306;28;20512;-52
2024/03/20 05:33:06;;;;;;;39.45;7.72;;;;;;;;;;2061544;28;20021;-51
2024/03/20 05:34:07;;;;;;;28.50;6.68;;;;;;;;;;2064721;28;20494;-50
2024/03/20 05:35:09;;;;;;;27.20;6.20;;;;;;;;;;2063542;28;20034;-49
2024/03/20 05:36:10;;;;;;;26.85;7.95;;;;;;;;;;2063758;28;20632;-50
2024/03/20 05:37:11;;;;;;;30.27;7.65;;;;;;;;;;2061690;28;20027;-50
2024/03/20 05:38:15;;;;;;;27.80;7.47;;;;;;;;;;2057482;28;20498;-51
2024/03/20 05:39:16;;;;;;;30.13;7.22;;;;;;;;;;2062432;28;20106;-51
2024/03/20 05:40:18;;;;;;;30.85;6.38;;;;;;;;;;2065096;28;20116;-50
2024/03/20 05:41:19;;;;;;;33.85;7.88;;;;;;;;;;2064293;28;20041;-49
2024/03/20 05:42:21;;;;;;;33.55;8.25;;;;;;;;;;2064052;28;20058;-50
2024/03/20 05:43:22;;;;;;;32.53;6.95;;;;;;;;;;2064826;28;20089;-49
2024/03/20 05:44:24;;;;;;;28.48;7.43;;;;;;;;;;2064240;28;20029;-47
2024/03/20 05:45:25;;;;;;;35.95;8.40;;;;;;;;;;2064438;28;20102;-49
2024/03/20 05:46:26;;;;;;;25.55;7.15;;;;;;;;;;2064122;28;20121;-51
2024/03/20 05:47:29;;;;;;;24.73;7.43;;;;;;;;;;2062233;28;20081;-50
2024/03/20 05:48:30;;;;;;;33.13;9.02;;;;;;;;;;2058102;28;20034;-50
2024/03/20 05:49:31;;;;;;;27.58;7.10;;;;;;;;;;2064787;28;20023;-50
2024/03/20 05:50:33;;;;;;;27.60;7.22;;;;;;;;;;2064932;28;20031;-52
2024/03/20 05:51:34;;;;;;;29.80;7.68;;;;;;;;;;2062975;28;20045;-47
2024/03/20 05:52:36;;;;;;;34.92;7.68;;;;;;;;;;2064165;28;20605;-51
2024/03/20 05:53:37;;;;;;;26.77;7.68;;;;;;;;;;2057009;28;20435;-51
2024/03/20 05:54:38;;;;;;;33.47;7.78;;;;;;;;;;2057094;28;20088;-47
2024/03/20 05:55:40;;;;;;;26.33;7.35;;;;;;;;;;2064769;28;20508;-47
2024/03/20 05:56:41;;;;;;;28.67;9.13;;;;;;;;;;2060956;28;20121;-48
2024/03/20 05:57:49;;;;;;;28.30;7.20;;;;;;;;;;2056472;28;20031;-47
2024/03/20 05:58:51;;;;;;;30.95;7.68;;;;;;;;;;2056176;28;20401;-47
2024/03/20 05:59:52;;;;;;;28.30;7.05;;;;;;;;;;2062295;28;20068;-48
2024/03/20 06:00:53;;;;;;;30.02;7.97;;;;;;;;;;2064929;28;20018;-48
2024/03/20 06:01:55;;;;;;;32.00;7.70;;;;;;;;;;2064769;28;20458;-48
2024/03/20 06:02:57;;;;;;;25.90;7.70;;;;;;;;;;2064652;28;20086;-48
2024/03/20 06:03:59;;;;;;;29.42;8.65;;;;;;;;;;2064158;28;20022;-49